Dades meteomassalio
Diari Summary for Gener 10, 2018 Units:  English    Metric   Both
« Previous Day
Next Day »
Diari Semanal Mensual Anual Personalitzat
  Maxima: Minima: Mijana:
Temperatura: TemperatureC °F -1.7 °F 6.2 °F
Rosada: DewpointC °F -2.7 °F 2.2 °F
Humitat: Humidity % 60 % 76 %
Velocitat del vent: WindSpeedKMH mph 0.0 mph 7.2 mph
Racha vent: WindSpeedGustKMH mph - -
Vent:- - WSW
Pressio: PressurehPa in 1018.2 in -
Pluja: 0.5 in    
Historical Graphs
 
 
Tabular Data for Gener 10, 2018
Time Temperature Dew Point Pressure Wind Wind Speed Wind Gust Humidity Rainfall Rate (Hourly) solar Conditions
TemperatureC °F DewpointC °F PressurehPa in Calm     Humidity % HourlyPrecipMM in SolarRadiationWatts/m^2 W/m2 Conditions
00:55 3.3 °F 1.8 °F 1021.6 in Calm     90 % 0.0 in 0.0 W/m2
01:09 3.3 °F 2.0 °F 1021.2 in Calm     91 % 0.3 in 0.0 W/m2 CLR
01:11 3.3 °F 1.8 °F 1021.2 in Calm     90 % 0.3 in 0.0 W/m2 CLR
01:15 3.3 °F 2.0 °F 1021.2 in Calm     91 % 0.3 in 0.0 W/m2 CLR
01:18 3.3 °F 2.0 °F 1021.2 in Calm     91 % 0.3 in 0.0 W/m2 CLR
01:36 3.3 °F 2.0 °F 1020.9 in Calm     91 % 0.3 in 0.0 W/m2 CLR
01:41 3.3 °F 2.0 °F 1020.9 in Calm     91 % 0.3 in 0.0 W/m2 CLR
01:47 2.8 °F 1.4 °F 1020.9 in Calm     91 % 0.3 in 0.0 W/m2 CLR
02:04 3.3 °F 2.0 °F 1020.9 in Calm     91 % 0.0 in 0.0 W/m2 CLR
02:07 3.3 °F 2.0 °F 1020.5 in Calm     91 % 0.0 in 0.0 W/m2 CLR
02:13 3.3 °F 2.2 °F 1020.5 in Calm     92 % 0.0 in 0.0 W/m2 CLR
02:14 3.3 °F 2.2 °F 1020.5 in Calm     92 % 0.0 in 0.0 W/m2 CLR
02:18 2.8 °F 1.4 °F 1020.5 in Calm     91 % 0.0 in 0.0 W/m2 CLR
02:33 2.8 °F 1.6 °F 1020.5 in Calm     92 % 0.0 in 0.0 W/m2 CLR
02:34 2.8 °F 1.6 °F 1020.5 in Calm     92 % 0.0 in 0.0 W/m2 CLR
02:38 2.2 °F 1.1 °F 1020.5 in Calm     92 % 0.0 in 0.0 W/m2 CLR
02:40 2.2 °F 1.1 °F 1020.5 in Calm     92 % 0.0 in 0.0 W/m2 CLR
02:43 2.2 °F 1.1 °F 1020.2 in Calm     92 % 0.0 in 0.0 W/m2 CLR
02:48 2.2 °F 1.1 °F 1020.2 in Calm     92 % 0.0 in 0.0 W/m2 CLR
02:50 2.2 °F 1.1 °F 1020.2 in Calm     92 % 0.0 in 0.0 W/m2 CLR
02:56 1.7 °F 0.5 °F 1020.2 in Calm     92 % 0.0 in 0.0 W/m2 CLR
03:08 1.7 °F 0.5 °F 1020.2 in Calm     92 % 0.0 in 0.0 W/m2 CLR
03:17 1.1 °F -0.1 °F 1020.2 in Calm     92 % 0.0 in 0.0 W/m2 CLR
03:19 1.1 °F -0.1 °F 1020.2 in Calm     92 % 0.0 in 0.0 W/m2 CLR
03:39 1.7 °F 0.5 °F 1020.2 in Calm     92 % 0.0 in 0.0 W/m2 CLR
03:44 1.7 °F 0.5 °F 1020.2 in Calm     92 % 0.0 in 0.0 W/m2 CLR
04:08 1.1 °F -0.1 °F 1019.9 in Calm     92 % 0.0 in 0.0 W/m2 CLR
04:21 1.1 °F -0.1 °F 1019.9 in Calm     92 % 0.0 in 0.0 W/m2 CLR
05:04 0.6 °F -0.4 °F 1019.9 in Calm     93 % 0.0 in 0.0 W/m2 CLR
05:15 0.6 °F -0.6 °F 1019.9 in Calm     92 % 0.0 in 0.0 W/m2 CLR
05:20 0.6 °F -0.6 °F 1019.9 in Calm     92 % 0.0 in 0.0 W/m2 CLR
05:27 0.6 °F -0.4 °F 1019.5 in Calm     93 % 0.0 in 0.0 W/m2 CLR
05:58 0.0 °F -1.0 °F 1019.5 in Calm     93 % 0.0 in 0.0 W/m2 CLR
06:08 0.0 °F -1.0 °F 1019.5 in Calm     93 % 0.0 in 0.0 W/m2 CLR
06:25 0.0 °F -1.0 °F 1019.9 in Calm     93 % 0.0 in 0.0 W/m2 CLR
07:41 -1.1 °F -2.1 °F 1020.2 in Calm     93 % 0.0 in 0.0 W/m2 CLR
08:33 -1.7 °F -2.7 °F 1020.9 in Calm     93 % 0.0 in 5.0 W/m2 OVC
09:52 1.1 °F 0.1 °F 1020.9 in Calm     93 % 0.0 in 88.0 W/m2 FEW
09:58 1.1 °F 0.1 °F 1020.9 in Calm     93 % 0.0 in 90.0 W/m2 FEW
10:39 2.8 °F 1.9 °F 1020.5 in Calm     94 % 0.0 in 274.0 W/m2 CLR
10:47 2.8 °F 1.9 °F 1020.9 in Calm     94 % 0.0 in 288.0 W/m2 CLR
11:51 9.4 °F 5.2 °F 1020.2 in NNW 18.5 mph 18.5 mph 75 % 0.0 in 403.0 W/m2 CLR
11:57 10.0 °F 5.4 °F 1020.2 in NNW 25.7 mph 25.7 mph 73 % 0.0 in 410.0 W/m2 CLR
12:11 10.6 °F 5.3 °F 1019.9 in NW 24.1 mph 24.1 mph 70 % 0.0 in 424.0 W/m2 CLR
12:48 11.7 °F 5.5 °F 1019.5 in NW 16.7 mph 16.7 mph 66 % 0.0 in 446.0 W/m2 CLR
13:40 12.8 °F 6.8 °F 1018.8 in North 19.3 mph 19.3 mph 67 % 0.0 in 443.0 W/m2 CLR
13:51 12.8 °F 6.6 °F 1018.8 in NW 18.5 mph 18.5 mph 66 % 0.0 in 436.0 W/m2 CLR
13:59 12.8 °F 7.0 °F 1018.8 in North 24.1 mph 24.1 mph 68 % 0.0 in 432.0 W/m2 CLR
14:27 12.2 °F 6.5 °F 1018.5 in NNE 20.9 mph 20.9 mph 68 % 0.0 in 121.0 W/m2 CLR
14:41 11.7 °F 6.4 °F 1018.5 in North 16.7 mph 16.7 mph 70 % 0.0 in 461.0 W/m2 CLR
14:51 12.2 °F 6.9 °F 1018.5 in NNE 16.7 mph 16.7 mph 70 % 0.0 in 406.0 W/m2 CLR
14:56 12.2 °F 6.7 °F 1018.5 in NNE 20.4 mph 20.4 mph 69 % 0.0 in 70.0 W/m2 CLR
15:21 10.6 °F 5.5 °F 1019.2 in NNE 11.1 mph 11.1 mph 71 % 0.0 in 137.0 W/m2 CLR
15:22 10.6 °F 5.5 °F 1019.2 in NNE 14.8 mph 14.8 mph 71 % 0.0 in 128.0 W/m2 CLR
15:23 10.6 °F 5.5 °F 1019.2 in NNE 16.1 mph 16.1 mph 71 % 0.0 in 128.0 W/m2 CLR
15:32 10.6 °F 5.7 °F 1019.2 in North 16.7 mph 16.7 mph 72 % 0.0 in 127.0 W/m2 CLR
15:37 10.6 °F 5.7 °F 1018.8 in NNE 12.9 mph 12.9 mph 72 % 0.0 in 144.0 W/m2 CLR
15:43 10.6 °F 5.7 °F 1018.8 in NNW 1.9 mph 1.9 mph 72 % 0.0 in 149.0 W/m2 CLR
15:51 10.6 °F 5.7 °F 1019.2 in North 14.8 mph 14.8 mph 72 % 0.0 in 139.0 W/m2 CLR
15:58 11.1 °F 6.3 °F 1019.2 in NNW 13.0 mph 13.0 mph 72 % 0.0 in 79.0 W/m2 CLR
16:08 10.6 °F 5.5 °F 1019.2 in North 14.8 mph 14.8 mph 71 % 0.0 in 109.0 W/m2 CLR
16:13 10.6 °F 5.5 °F 1019.2 in NNE 13.0 mph 13.0 mph 71 % 0.0 in 155.0 W/m2 CLR
16:25 10.6 °F 5.5 °F 1019.2 in Calm     71 % 0.0 in 153.0 W/m2 CLR
16:33 10.6 °F 5.3 °F 1019.2 in North 3.2 mph 3.2 mph 70 % 0.0 in 97.0 W/m2 CLR
16:40 10.6 °F 5.1 °F 1019.2 in NNW 1.9 mph 1.9 mph 69 % 0.0 in 72.0 W/m2 CLR
16:46 10.6 °F 5.3 °F 1018.8 in Calm     70 % 0.0 in 67.0 W/m2 FEW
16:52 10.0 °F 4.3 °F 1018.8 in NW 11.3 mph 11.3 mph 68 % 0.0 in 65.0 W/m2 SCT
16:57 10.0 °F 3.9 °F 1018.8 in NW 14.8 mph 14.8 mph 66 % 0.0 in 67.0 W/m2 FEW
17:03 10.6 °F 3.3 °F 1018.8 in WNW 20.4 mph 20.4 mph 61 % 0.0 in 58.0 W/m2 SCT
17:13 11.1 °F 3.6 °F 1018.8 in NW 24.1 mph 24.1 mph 60 % 0.0 in 26.0 W/m2 BKN
17:18 10.6 °F 3.1 °F 1018.8 in NW 22.2 mph 22.2 mph 60 % 0.0 in 21.0 W/m2 BKN
17:31 10.6 °F 3.3 °F 1018.8 in WNW 20.4 mph 20.4 mph 61 % 0.0 in 14.0 W/m2 BKN
17:36 10.0 °F 3.1 °F 1018.5 in WNW 17.7 mph 17.7 mph 62 % 0.0 in 9.0 W/m2 BKN
17:43 10.0 °F 2.8 °F 1018.5 in NW 18.5 mph 18.5 mph 61 % 0.0 in 5.0 W/m2 OVC
17:49 10.0 °F 3.1 °F 1018.5 in WNW 14.8 mph 14.8 mph 62 % 0.0 in 0.0 W/m2 OVC
17:56 9.4 °F 2.5 °F 1018.5 in NW 11.1 mph 11.1 mph 62 % 0.0 in 0.0 W/m2 OVC
18:01 9.4 °F 2.7 °F 1018.5 in NW 7.4 mph 7.4 mph 63 % 0.0 in 0.0 W/m2 CLR
18:14 8.3 °F 1.9 °F 1018.5 in WNW 14.8 mph 14.8 mph 64 % 0.0 in 0.0 W/m2 CLR
18:24 7.8 °F 1.4 °F 1018.5 in Calm     64 % 0.0 in 0.0 W/m2 CLR
18:33 7.2 °F 1.1 °F 1018.2 in Calm     65 % 0.0 in 0.0 W/m2 CLR
18:42 6.7 °F 0.6 °F 1018.2 in NW 1.9 mph   65 % 0.0 in 0.0 W/m2 CLR
18:52 6.7 °F 0.6 °F 1018.2 in Calm     65 % 0.0 in 0.0 W/m2 CLR
18:58 6.7 °F 0.6 °F 1018.2 in NW 3.7 mph 3.7 mph 65 % 0.0 in 0.0 W/m2 CLR
19:04 6.1 °F 0.2 °F 1018.2 in Calm     66 % 0.0 in 0.0 W/m2 CLR
19:11 6.1 °F 0.2 °F 1018.2 in Calm     66 % 0.0 in 0.0 W/m2 CLR
19:17 6.1 °F 0.4 °F 1018.2 in Calm     67 % 0.0 in 0.0 W/m2 CLR
19:23 6.7 °F 0.9 °F 1018.2 in WNW 5.6 mph 5.6 mph 67 % 0.0 in 0.0 W/m2 CLR
19:34 6.7 °F 0.9 °F 1018.2 in Calm     67 % 0.0 in 0.0 W/m2 CLR
19:39 6.7 °F 0.9 °F 1018.2 in Calm     67 % 0.0 in 0.0 W/m2 CLR
19:44 7.2 °F 1.7 °F 1018.2 in Calm     68 % 0.0 in 0.0 W/m2 CLR
19:50 7.2 °F 1.9 °F 1018.2 in Calm     69 % 0.0 in 0.0 W/m2 CLR
19:56 7.2 °F 2.1 °F 1018.2 in Calm     70 % 0.0 in 0.0 W/m2 CLR
20:04 7.2 °F 2.1 °F 1018.5 in Calm     70 % 0.0 in 0.0 W/m2 CLR
20:10 7.2 °F 2.3 °F 1018.5 in Calm     71 % 0.0 in 0.0 W/m2 CLR
20:15 6.7 °F 2.0 °F 1018.5 in Calm     72 % 0.0 in 0.0 W/m2 CLR
20:22 6.7 °F 2.0 °F 1018.5 in Calm     72 % 0.0 in 0.0 W/m2 CLR
20:49 5.6 °F 0.7 °F 1018.5 in Calm     71 % 0.0 in 0.0 W/m2 CLR
21:01 5.6 °F 0.7 °F 1018.2 in WNW 5.6 mph 5.6 mph 71 % 0.0 in 0.0 W/m2 CLR
21:13 5.0 °F 0.2 °F 1018.2 in WNW 14.8 mph 14.8 mph 71 % 0.0 in 0.0 W/m2 CLR
21:27 4.4 °F -0.6 °F 1018.2 in WNW 4.8 mph 4.8 mph 70 % 0.0 in 0.0 W/m2 CLR
22:03 3.3 °F -1.8 °F 1018.8 in WNW 16.7 mph 16.7 mph 69 % 0.0 in 0.0 W/m2 CLR
22:11 3.3 °F -2.0 °F 1018.8 in NW 18.5 mph 18.5 mph 68 % 0.0 in 0.0 W/m2 CLR
22:16 3.3 °F -2.2 °F 1018.8 in NW 16.7 mph 16.7 mph 67 % 0.0 in 0.0 W/m2 CLR
22:30 8.3 °F 2.1 °F 1018.8 in NW 20.4 mph 20.4 mph 65 % 0.0 in 0.0 W/m2 CLR
22:52 8.9 °F 2.7 °F 1018.5 in NW 20.4 mph 20.4 mph 65 % 0.0 in 0.0 W/m2 CLR
23:05 8.3 °F 2.1 °F 1018.8 in NNW 30.6 mph 30.6 mph 65 % 0.0 in 0.0 W/m2 CLR
23:45 8.3 °F 2.1 °F 1019.2 in NW 31.5 mph 31.5 mph 65 % 0.0 in 0.0 W/m2 CLR
23:53 8.9 °F 2.7 °F 1019.2 in NW 42.6 mph 42.6 mph 65 % 0.0 in 0.0 W/m2 CLR
Lo Temps de Massalio
Compliments of Weather Underground - 512 kb